Time;durP1;ratioP1;P1;durP2;ratioP2;P2;SDS_P1;SDS_P2;PMS_P1;PMS_P2;Temp;Humidity;BMP_temperature;BMP_pressure;BME280_temperature;BME280_humidity;BME280_pressure;Samples;Min_cycle;Max_cycle;Signal;HPM_P1;HPM_P2
2022/04/03 00:03:54;;;;;;;;;;;-1.00;99.90;212.10;228463.00;;;;3;78027321;82529011;-70
2022/04/03 00:08:13;;;;;;;;;;;-1.00;99.90;212.10;228463.00;;;;3;75026461;78027179;-71
2022/04/03 00:12:33;;;;;;;;;;;-1.00;99.90;212.10;228463.00;;;;3;75027445;82528411;-71
2022/04/03 00:16:57;;;;;;;;;;;-1.00;99.90;212.10;228463.00;;;;3;82527583;82528312;-70
2022/04/03 00:21:24;;;;;;;;;;;-1.00;99.90;212.10;228463.00;;;;3;78027138;82530139;-72
2022/04/03 00:25:43;;;;;;;;;;;-1.10;99.90;212.10;228463.00;;;;3;75026993;78027439;-71
2022/04/03 00:30:02;;;;;;;;;;;-1.10;99.90;212.10;228463.00;;;;3;75025406;82532951;-71
2022/04/03 00:34:26;;;;;;;;;;;-1.10;99.90;212.10;228463.00;;;;3;82526634;82531771;-71
2022/04/03 00:38:53;;;;;;;;;;;-1.00;99.90;212.10;228463.00;;;;3;78025505;82529997;-69
2022/04/03 00:43:14;;;;;;;;;;;-1.10;99.90;212.10;228463.00;;;;3;75025475;78026450;-71
2022/04/03 00:47:37;;;;;;;;;;;-1.10;99.90;212.10;228463.00;;;;3;75026171;84028783;-70
2022/04/03 00:52:00;;;;;;;;;;;-1.10;99.90;212.10;228463.00;;;;3;82528206;82528846;-70
2022/04/03 00:56:28;;;;;;;;;;;-1.10;99.90;212.10;228463.00;;;;3;78027594;82528952;-71
2022/04/03 01:00:47;;;;;;;;;;;-1.10;99.90;212.10;228463.00;;;;3;75025363;78029250;-70
2022/04/03 01:05:07;;;;;;;;;;;-1.10;99.90;212.10;228463.00;;;;3;75027304;82528772;-71
2022/04/03 01:09:31;;;;;;;;;;;-1.10;99.90;212.10;228463.00;;;;3;82529205;82530180;-70
2022/04/03 01:14:06;;;;;;;;;;;-1.10;99.90;212.10;228463.00;;;;3;78029116;82528682;-70
2022/04/03 01:18:26;;;;;;;;;;;-1.20;99.90;212.10;228463.00;;;;3;75026512;78027111;-70
2022/04/03 01:22:45;;;;;;;;;;;-1.10;99.90;212.10;228463.00;;;;3;75025168;82529270;-70
2022/04/03 01:27:13;;;;;;;;;;;-1.20;99.90;212.10;228463.00;;;;3;84027492;84029366;-61
2022/04/03 01:31:40;;;;;;;;;;;-1.20;99.90;212.10;228463.00;;;;3;78028389;82531627;-60
2022/04/03 01:35:59;;;;;;;;;;;-1.20;99.90;212.10;228463.00;;;;3;75025602;78029604;-61
2022/04/03 01:40:18;;;;;;;;;;;-1.20;99.90;212.10;228463.00;;;;3;75026633;82527402;-61
2022/04/03 01:44:44;;;;;;;;;;;-1.20;99.90;212.10;228463.00;;;;3;82528664;82529894;-61
2022/04/03 01:49:11;;;;;;;;;;;-1.20;99.90;212.10;228463.00;;;;3;78027898;82527615;-61
2022/04/03 01:53:30;;;;;;;;;;;-1.20;99.90;212.10;228463.00;;;;3;75026182;78028787;-60
2022/04/03 01:57:50;;;;;;;;;;;-1.30;99.90;212.10;228463.00;;;;3;75025883;82530651;-61
2022/04/03 02:02:13;;;;;;;;;;;-1.30;99.90;212.10;228463.00;;;;3;82528320;82529428;-60
2022/04/03 02:06:40;;;;;;;;;;;-1.30;99.90;212.10;228463.00;;;;3;78027593;82530304;-70
2022/04/03 02:11:01;;;;;;;;;;;-1.30;99.90;212.10;228463.00;;;;3;75026404;78030080;-70
2022/04/03 02:15:23;;;;;;;;;;;-1.30;99.90;212.10;228463.00;;;;3;75026470;84030072;-70
2022/04/03 02:19:47;;;;;;;;;;;-1.30;99.90;212.10;228463.00;;;;3;82529097;82529178;-70
2022/04/03 02:24:13;;;;;;;;;;;-1.30;99.90;212.10;228463.00;;;;3;78027305;82527696;-70
2022/04/03 02:28:32;;;;;;;;;;;-1.30;99.90;212.10;228463.00;;;;3;75026711;78026257;-61
2022/04/03 02:32:52;;;;;;;;;;;-1.30;99.90;212.10;228463.00;;;;3;75026423;82527754;-62
2022/04/03 02:37:16;;;;;;;;;;;-1.30;99.90;212.10;228463.00;;;;3;82528237;82529764;-61
2022/04/03 02:41:42;;;;;;;;;;;-1.30;99.90;212.10;228463.00;;;;3;78027879;82527525;-62
2022/04/03 02:46:02;;;;;;;;;;;-1.30;99.90;212.10;228463.00;;;;3;75026000;78027426;-61
2022/04/03 02:50:22;;;;;;;;;;;-1.30;99.90;212.10;228463.00;;;;3;75029539;82530131;-62
2022/04/03 02:54:48;;;;;;;;;;;-1.30;99.90;212.10;228463.00;;;;3;84028846;84029146;-62
2022/04/03 02:59:16;;;;;;;;;;;-1.30;99.90;212.10;228463.00;;;;3;78028762;82529655;-62
2022/04/03 03:03:35;;;;;;;;;;;-1.30;99.90;212.10;228463.00;;;;3;75024775;78026632;-61
2022/04/03 03:07:58;;;;;;;;;;;-1.30;99.90;212.10;228463.00;;;;3;75024809;82529393;-62
2022/04/03 03:12:21;;;;;;;;;;;-1.30;99.90;212.10;228463.00;;;;3;82527757;82528449;-61
2022/04/03 03:16:48;;;;;;;;;;;-1.30;99.90;212.10;228463.00;;;;3;78027954;82531844;-62
2022/04/03 03:21:07;;;;;;;;;;;-1.30;99.90;212.10;228463.00;;;;3;75025530;78026612;-61
2022/04/03 03:25:28;;;;;;;;;;;-1.30;99.90;212.10;228463.00;;;;3;75024702;82530170;-61
2022/04/03 03:29:52;;;;;;;;;;;-1.30;99.90;212.10;228463.00;;;;3;82527552;82532697;-61
2022/04/03 03:34:18;;;;;;;;;;;-1.20;99.90;212.10;228463.00;;;;3;78028295;82530086;-60
2022/04/03 03:38:40;;;;;;;;;;;-1.30;99.90;212.10;228463.00;;;;3;75025630;78027801;-61
2022/04/03 03:43:01;;;;;;;;;;;-1.20;99.90;212.10;228463.00;;;;3;75026607;84027867;-61
2022/04/03 03:47:26;;;;;;;;;;;-1.30;99.90;212.10;228463.00;;;;3;82527143;82529562;-61
2022/04/03 03:51:53;;;;;;;;;;;-1.20;99.90;212.10;228463.00;;;;3;78028309;82527755;-61
2022/04/03 03:56:13;;;;;;;;;;;-1.20;99.90;212.10;228463.00;;;;3;75025876;78027052;-62
2022/04/03 04:00:32;;;;;;;;;;;-1.10;99.90;212.10;228463.00;;;;3;75026778;82527726;-61
2022/04/03 04:04:57;;;;;;;;;;;-1.00;99.90;212.10;228463.00;;;;3;82528726;82529583;-61
2022/04/03 04:09:24;;;;;;;;;;;-1.10;99.90;212.10;228463.00;;;;3;78027041;82527829;-60
2022/04/03 04:13:43;;;;;;;;;;;-1.00;99.90;212.10;228463.00;;;;3;75025339;78028678;-60
2022/04/03 04:18:07;;;;;;;;;;;-1.10;99.90;212.10;228463.00;;;;3;75025515;82527637;-61
2022/04/03 04:22:33;;;;;;;;;;;-1.10;99.90;212.10;228463.00;;;;3;84028676;84030974;-60
2022/04/03 04:27:00;;;;;;;;;;;-1.00;99.90;212.10;228463.00;;;;3;78026697;82529377;-60
2022/04/03 04:31:19;;;;;;;;;;;-1.10;99.90;212.10;228463.00;;;;3;75029212;78027692;-62
2022/04/03 04:35:38;;;;;;;;;;;-1.10;99.90;212.10;228463.00;;;;3;75025850;82528542;-61
2022/04/03 04:40:03;;;;;;;;;;;-1.10;99.90;212.10;228463.00;;;;3;82530197;82530325;-63
2022/04/03 04:44:30;;;;;;;;;;;-1.10;99.90;212.10;228463.00;;;;3;78029321;82528432;-62
2022/04/03 04:48:49;;;;;;;;;;;-1.10;99.90;212.10;228463.00;;;;3;75025704;78028544;-62
2022/04/03 04:53:09;;;;;;;;;;;-1.10;99.90;212.10;228463.00;;;;3;75025033;82529668;-62
2022/04/03 04:57:33;;;;;;;;;;;-1.10;99.90;212.10;228463.00;;;;3;82528234;82531948;-61
2022/04/03 05:02:00;;;;;;;;;;;-1.00;99.90;212.10;228463.00;;;;3;78029612;82527583;-60
2022/04/03 05:06:23;;;;;;;;;;;-0.90;99.90;212.10;228463.00;;;;3;75025236;78029243;-62
2022/04/03 05:10:45;;;;;;;;;;;-1.00;99.90;212.10;228463.00;;;;3;75025638;84029939;-61
2022/04/03 05:15:11;;;;;;;;;;;-0.90;99.90;212.10;228463.00;;;;3;82529808;82529858;-61
2022/04/03 05:19:38;;;;;;;;;;;-0.80;99.90;212.10;228463.00;;;;3;78028760;82529230;-60
2022/04/03 05:23:58;;;;;;;;;;;-0.70;99.90;212.10;228463.00;;;;3;75027293;78026539;-61
2022/04/03 05:28:17;;;;;;;;;;;-0.70;99.90;212.10;228463.00;;;;3;75025401;82527655;-63
2022/04/03 05:32:51;;;;;;;;;;;-0.70;99.90;212.10;228463.00;;;;3;82525974;82529466;-62
2022/04/03 05:37:18;;;;;;;;;;;-0.60;99.90;212.10;228463.00;;;;3;78026875;82528072;-61
2022/04/03 05:41:38;;;;;;;;;;;-0.50;99.90;212.10;228463.00;;;;3;75024786;78026673;-61
2022/04/03 05:45:57;;;;;;;;;;;-0.70;99.90;212.10;228463.00;;;;3;75025368;82527983;-61
2022/04/03 05:50:24;;;;;;;;;;;-0.90;99.90;212.10;228463.00;;;;3;84027957;84029215;-61
2022/04/03 05:54:51;;;;;;;;;;;-0.90;99.90;212.10;228463.00;;;;3;78029540;82529708;-62
2022/04/03 05:59:10;;;;;;;;;;;-0.90;99.90;212.10;228463.00;;;;3;75026178;78027210;-60
2022/04/03 06:03:29;;;;;;;;;;;-0.70;99.90;212.10;228463.00;;;;3;75024517;82526202;-61
2022/04/03 06:07:53;;;;;;;;;;;-0.90;99.90;212.10;228463.00;;;;3;82527104;82527387;-63
2022/04/03 06:12:20;;;;;;;;;;;-0.70;99.90;212.10;228463.00;;;;3;78030330;82528766;-70
2022/04/03 06:16:39;;;;;;;;;;;-0.60;99.90;212.10;228463.00;;;;3;75025240;78028998;-70
2022/04/03 06:20:59;;;;;;;;;;;-0.60;99.90;212.10;228463.00;;;;3;75026431;82528539;-63
2022/04/03 06:25:23;;;;;;;;;;;-0.60;99.90;212.10;228463.00;;;;3;82528301;82529727;-64
2022/04/03 06:29:49;;;;;;;;;;;-0.50;99.90;212.10;228463.00;;;;3;78028575;82528324;-65
2022/04/03 06:34:10;;;;;;;;;;;-0.60;99.90;212.10;228463.00;;;;3;75027243;78027525;-65
2022/04/03 06:38:31;;;;;;;;;;;-0.60;99.90;212.10;228463.00;;;;3;75026465;84029388;-64
2022/04/03 06:42:54;;;;;;;;;;;-0.70;99.90;212.10;228463.00;;;;3;82528383;82529177;-64
2022/04/03 06:47:22;;;;;;;;;;;-0.70;99.90;212.10;228463.00;;;;3;78026686;82530062;-66
2022/04/03 06:51:41;;;;;;;;;;;-0.70;99.90;212.10;228463.00;;;;3;75027991;78028551;-64
2022/04/03 06:56:00;;;;;;;;;;;-1.00;99.90;212.10;228463.00;;;;3;75026553;82528465;-63
2022/04/03 07:00:24;;;;;;;;;;;-0.90;99.90;212.10;228463.00;;;;3;82526912;82530265;-63
2022/04/03 07:04:51;;;;;;;;;;;-1.00;99.90;212.10;228463.00;;;;3;78028046;82528480;-65
2022/04/03 07:09:11;;;;;;;;;;;-1.00;99.90;212.10;228463.00;;;;3;75026207;78030072;-64
2022/04/03 07:13:30;;;;;;;;;;;-1.00;99.90;212.10;228463.00;;;;3;75025555;82527826;-66
2022/04/03 07:17:56;;;;;;;;;;;-1.10;99.90;212.10;228463.00;;;;3;84030121;84031272;-65
2022/04/03 07:22:23;;;;;;;;;;;-1.20;99.90;212.10;228463.00;;;;3;78029414;82528029;-65
2022/04/03 07:26:42;;;;;;;;;;;-1.50;99.90;212.10;228463.00;;;;3;75025766;78027466;-72
2022/04/03 07:31:01;;;;;;;;;;;-1.40;99.90;212.10;228463.00;;;;3;75026279;82530696;-72
2022/04/03 07:35:25;;;;;;;;;;;-1.40;99.90;212.10;228463.00;;;;3;82527569;82530144;-71
2022/04/03 07:39:52;;;;;;;;;;;-1.40;99.90;212.10;228463.00;;;;3;78027316;82528439;-70
2022/04/03 07:44:11;;;;;;;;;;;-1.30;99.90;212.10;228463.00;;;;3;75026278;78027830;-70
2022/04/03 07:48:30;;;;;;;;;;;-1.20;99.90;212.10;228463.00;;;;3;75026273;82527203;-73
2022/04/03 07:52:54;;;;;;;;;;;-1.30;99.90;212.10;228463.00;;;;3;82528269;82529562;-73
2022/04/03 07:57:21;;;;;;;;;;;-1.20;99.90;212.10;228463.00;;;;3;78028972;82529680;-72
2022/04/03 08:01:41;;;;;;;;;;;-1.40;99.90;212.10;228463.00;;;;3;75026505;78029931;-70
2022/04/03 08:06:02;;;;;;;;;;;-1.30;99.90;212.10;228463.00;;;;3;75026293;84026764;-72
2022/04/03 08:10:29;;;;;;;;;;;-1.30;99.90;212.10;228463.00;;;;3;82525700;82527156;-65
2022/04/03 08:14:56;;;;;;;;;;;-1.00;99.90;212.10;228463.00;;;;3;78028661;82527714;-61
2022/04/03 08:19:16;;;;;;;;;;;-0.70;99.90;212.10;228463.00;;;;3;75028399;78027542;-62
2022/04/03 08:23:36;;;;;;;;;;;-0.70;99.90;212.10;228463.00;;;;3;75026099;82529232;-64
2022/04/03 08:28:10;;;;;;;;;;;-0.30;99.90;212.10;228463.00;;;;3;82528668;82528861;-64
2022/04/03 08:32:36;;;;;;;;;;;-0.50;99.90;212.10;228463.00;;;;3;78025861;82526201;-64
2022/04/03 08:36:55;;;;;;;;;;;-0.20;99.90;212.10;228463.00;;;;3;75026091;78026788;-65
2022/04/03 08:41:15;;;;;;;;;;;0.00;99.90;212.10;228463.00;;;;3;75025043;82530719;-64
2022/04/03 08:45:41;;;;;;;;;;;-0.30;99.90;212.10;228463.00;;;;3;84028374;84029897;-64
2022/04/03 08:50:10;;;;;;;;;;;0.10;99.90;212.10;228463.00;;;;3;78030241;82528679;-63
2022/04/03 08:54:29;;;;;;;;;;;0.40;99.90;212.10;228463.00;;;;3;75024549;78029890;-63
2022/04/03 09:00:03;;;;;;;;;;;0.70;99.90;212.10;228463.00;;;;3;72024483;75025782;-63
2022/04/03 09:04:30;;;;;;;;;;;0.70;99.90;212.10;228463.00;;;;3;82527977;82532179;-61
2022/04/03 09:08:57;;;;;;;;;;;0.80;99.90;212.10;228463.00;;;;3;78027828;82527806;-62
2022/04/03 09:13:23;;;;;;;;;;;0.80;99.90;212.10;228463.00;;;;3;75026127;78027292;-62
2022/04/03 09:18:03;;;;;;;;;;;1.00;99.90;212.10;228463.00;;;;3;75026033;82527335;-62
2022/04/03 09:22:28;;;;;;;;;;;1.50;99.90;212.10;228463.00;;;;3;82528938;82530596;-66
2022/04/03 09:26:58;;;;;;;;;;;1.70;99.90;212.10;228463.00;;;;3;78028450;82529370;-66
2022/04/03 09:31:25;;;;;;;;;;;1.60;99.90;212.10;228463.00;;;;3;75026681;78027980;-67
2022/04/03 09:36:01;;;;;;;;;;;2.00;99.90;212.10;228463.00;;;;3;75025187;84028829;-65
2022/04/03 09:40:31;;;;;;;;;;;2.10;99.90;212.10;228463.00;;;;3;82528939;82529104;-65
2022/04/03 09:44:58;;;;;;;;;;;2.20;99.90;212.10;228463.00;;;;3;78028107;82528669;-64
2022/04/03 09:49:22;;;;;;;;;;;1.60;99.90;212.10;228463.00;;;;3;75025891;78027345;-64
2022/04/03 09:53:45;;;;;;;;;;;1.30;99.90;212.10;228463.00;;;;3;75026118;82529526;-64
2022/04/03 09:58:24;;;;;;;;;;;1.30;99.90;212.10;228463.00;;;;3;82526349;82527964;-65
2022/04/03 10:02:56;;;;;;;;;;;2.00;99.90;212.10;228463.00;;;;3;78027971;82527398;-65
2022/04/03 10:07:16;;;;;;;;;;;1.70;99.90;212.10;228463.00;;;;3;75024719;78026239;-65
2022/04/03 10:11:35;;;;;;;;;;;1.50;99.90;212.10;228463.00;;;;3;75024351;82527537;-65
2022/04/03 10:16:02;;;;;;;;;;;1.30;99.90;212.10;228463.00;;;;3;84027879;84029305;-65
2022/04/03 10:20:29;;;;;;;;;;;1.90;99.90;212.10;228463.00;;;;3;78026706;82530180;-62
2022/04/03 10:37:31;;;;;;;;;;;1.60;99.90;212.10;228463.00;;;;3;82528159;82530380;-73
2022/04/03 10:42:25;;;;;;;;;;;1.90;99.90;212.10;228463.00;;;;3;78029752;82529308;-65
2022/04/03 10:47:05;;;;;;;;;;;2.00;99.90;212.10;228463.00;;;;3;75026445;78027751;-64
2022/04/03 10:51:33;;;;;;;;;;;1.90;99.90;212.10;228463.00;;;;3;75025652;82528344;-65
2022/04/03 10:56:02;;;;;;;;;;;2.20;99.90;212.10;228463.00;;;;3;82528586;82528833;-65
2022/04/03 11:00:34;;;;;;;;;;;2.30;99.90;212.10;228463.00;;;;3;78025712;82526904;-65
2022/04/03 11:04:55;;;;;;;;;;;2.70;99.90;212.10;228463.00;;;;3;75024864;78026737;-65
2022/04/03 11:09:24;;;;;;;;;;;3.00;99.90;212.10;228463.00;;;;3;75025235;84029556;-66
2022/04/03 11:13:54;;;;;;;;;;;3.00;99.90;212.10;228463.00;;;;3;82527049;82527690;-65
2022/04/03 11:18:33;;;;;;;;;;;3.00;99.90;212.10;228463.00;;;;3;78025439;82529447;-66
2022/04/03 11:22:53;;;;;;;;;;;2.70;99.90;212.10;228463.00;;;;3;75025863;78026664;-65
2022/04/03 11:27:13;;;;;;;;;;;2.80;99.90;212.10;228463.00;;;;3;75025746;82529244;-64
2022/04/03 11:31:40;;;;;;;;;;;3.30;99.90;212.10;228463.00;;;;3;82527872;82529343;-65
2022/04/03 11:36:14;;;;;;;;;;;3.50;99.90;212.10;228463.00;;;;3;78027333;82529234;-65
2022/04/03 11:40:38;;;;;;;;;;;3.40;99.90;212.10;228463.00;;;;3;75024572;78027700;-64
2022/04/03 11:44:58;;;;;;;;;;;3.40;99.90;212.10;228463.00;;;;3;75025283;82527562;-65
2022/04/03 11:49:36;;;;;;;;;;;3.20;99.90;212.10;228463.00;;;;3;84027044;84028858;-65
2022/04/03 11:54:04;;;;;;;;;;;2.60;99.90;212.10;228463.00;;;;3;78028494;82529028;-65
2022/04/03 11:58:30;;;;;;;;;;;2.60;99.90;212.10;228463.00;;;;3;75023706;78027990;-64
2022/04/03 12:02:55;;;;;;;;;;;2.70;99.90;212.10;228463.00;;;;3;75024582;82526830;-64
2022/04/03 12:07:20;;;;;;;;;;;3.30;99.90;212.10;228463.00;;;;3;82528102;82530022;-64
2022/04/03 12:11:51;;;;;;;;;;;3.40;99.90;212.10;228463.00;;;;3;78026295;82528309;-64
2022/04/03 12:16:17;;;;;;;;;;;3.20;99.90;212.10;228463.00;;;;3;75024665;78026809;-63
2022/04/03 12:20:36;;;;;;;;;;;3.30;99.90;212.10;228463.00;;;;3;75025098;82527142;-65
2022/04/03 12:25:00;;;;;;;;;;;3.50;99.90;212.10;228463.00;;;;3;82528310;82530133;-63
2022/04/03 12:29:29;;;;;;;;;;;3.00;99.90;212.10;228463.00;;;;3;78028872;82528763;-62
2022/04/03 12:34:13;;;;;;;;;;;3.20;99.90;212.10;228463.00;;;;3;75025439;78028723;-61
2022/04/03 12:38:34;;;;;;;;;;;3.40;99.90;212.10;228463.00;;;;3;75025674;84025711;-61
2022/04/03 12:43:04;;;;;;;;;;;3.40;99.90;212.10;228463.00;;;;3;82528214;82529041;-61
2022/04/03 12:47:36;;;;;;;;;;;3.00;99.90;212.10;228463.00;;;;3;78026020;82526508;-63
2022/04/03 12:52:05;;;;;;;;;;;3.00;99.90;212.10;228463.00;;;;3;75024976;78026794;-61
2022/04/03 12:58:24;;;;;;;;;;;3.00;99.90;212.10;228463.00;;;;3;75026227;82527511;-62
2022/04/03 13:01:20;;;;;;;;;;;3.10;99.90;212.10;228463.00;;;;3;82526690;82528953;-63
2022/04/03 13:06:00;;;;;;;;;;;2.90;99.90;212.10;228463.00;;;;3;78027676;82529426;-61
2022/04/03 13:10:19;;;;;;;;;;;3.10;99.90;212.10;228463.00;;;;3;75024521;78027511;-61
2022/04/03 13:14:38;;;;;;;;;;;3.10;99.90;212.10;228463.00;;;;3;75025801;82528094;-61
2022/04/03 13:19:05;;;;;;;;;;;3.20;99.90;212.10;228463.00;;;;3;84026571;84030050;-61
2022/04/03 13:23:32;;;;;;;;;;;3.40;99.90;212.10;228463.00;;;;3;78028456;82527034;-62
2022/04/03 13:27:51;;;;;;;;;;;3.30;99.90;212.10;228463.00;;;;3;75024710;78025597;-62
2022/04/03 13:32:10;;;;;;;;;;;3.20;99.90;212.10;228463.00;;;;3;75026058;82530054;-61
2022/04/03 13:36:34;;;;;;;;;;;3.10;99.90;212.10;228463.00;;;;3;82527561;82528514;-60
2022/04/03 13:41:02;;;;;;;;;;;2.90;99.90;212.10;228463.00;;;;3;78028277;82527054;-61
2022/04/03 13:45:56;;;;;;;;;;;2.90;99.90;212.10;228463.00;;;;3;75024721;78026285;-60
2022/04/03 13:50:00;;;;;;;;;;;2.80;99.90;212.10;228463.00;;;;3;75026542;82529452;-60
2022/04/03 13:54:24;;;;;;;;;;;2.70;99.90;212.10;228463.00;;;;3;82527892;82529326;-61
2022/04/03 13:58:51;;;;;;;;;;;2.50;99.90;212.10;228463.00;;;;3;78026665;82528790;-61
2022/04/03 14:03:13;;;;;;;;;;;2.50;99.90;212.10;228463.00;;;;3;75026600;78027276;-62
2022/04/03 14:07:34;;;;;;;;;;;2.60;99.90;212.10;228463.00;;;;3;75027145;84028199;-61
2022/04/03 14:11:59;;;;;;;;;;;2.70;99.90;212.10;228463.00;;;;3;82527229;82532107;-60
2022/04/03 14:16:26;;;;;;;;;;;2.70;99.90;212.10;228463.00;;;;3;78028115;82526610;-62
2022/04/03 14:20:46;;;;;;;;;;;2.60;99.70;212.10;228463.00;;;;3;75027671;78027088;-60
2022/04/03 14:25:07;;;;;;;;;;;2.50;99.40;212.10;228463.00;;;;3;75026581;82529972;-59
2022/04/03 14:29:31;;;;;;;;;;;2.30;98.70;212.10;228463.00;;;;3;82526623;82527324;-60
2022/04/03 14:33:58;;;;;;;;;;;2.40;99.60;212.10;228463.00;;;;3;78027547;82527588;-60
2022/04/03 14:38:17;;;;;;;;;;;2.40;98.40;212.10;228463.00;;;;3;75027850;78026145;-62
2022/04/03 14:42:36;;;;;;;;;;;2.40;98.80;212.10;228463.00;;;;3;75024748;82527771;-60
2022/04/03 14:47:05;;;;;;;;;;;2.30;98.30;212.10;228463.00;;;;3;84028603;84029335;-61
2022/04/03 14:51:33;;;;;;;;;;;2.30;97.90;212.10;228463.00;;;;3;78026686;82529385;-59
2022/04/03 14:55:52;;;;;;;;;;;2.30;98.10;212.10;228463.00;;;;3;75023615;78026713;-60
2022/04/03 15:00:11;;;;;;;;;;;2.20;97.90;212.10;228463.00;;;;3;75024328;82526125;-61
2022/04/03 15:04:35;;;;;;;;;;;2.20;98.50;212.10;228463.00;;;;3;82527087;82527885;-58
2022/04/03 15:09:02;;;;;;;;;;;2.10;97.90;212.10;228463.00;;;;3;78025095;82527690;-59
2022/04/03 15:13:21;;;;;;;;;;;2.10;98.20;212.10;228463.00;;;;3;75025158;78027161;-61
2022/04/03 15:17:41;;;;;;;;;;;2.10;97.90;212.10;228463.00;;;;3;75023409;82525809;-60
2022/04/03 15:22:05;;;;;;;;;;;2.00;98.50;212.10;228463.00;;;;3;82528505;82529785;-61
2022/04/03 15:26:31;;;;;;;;;;;2.00;98.50;212.10;228463.00;;;;3;78025854;82528104;-61
2022/04/03 15:30:54;;;;;;;;;;;2.00;98.20;212.10;228463.00;;;;3;75025972;78029359;-61
2022/04/03 15:35:15;;;;;;;;;;;1.90;97.90;212.10;228463.00;;;;3;75026066;84027955;-62
2022/04/03 15:39:39;;;;;;;;;;;1.90;98.20;212.10;228463.00;;;;3;82527156;82528176;-62
2022/04/03 15:44:05;;;;;;;;;;;1.90;98.30;212.10;228463.00;;;;3;78026365;82527545;-61
2022/04/03 15:48:25;;;;;;;;;;;1.80;98.50;212.10;228463.00;;;;3;75026206;78026088;-61
2022/04/03 15:52:44;;;;;;;;;;;1.80;98.70;212.10;228463.00;;;;3;75024890;82527728;-64
2022/04/03 15:57:08;;;;;;;;;;;1.80;97.70;212.10;228463.00;;;;3;82525887;82526674;-62
2022/04/03 16:01:37;;;;;;;;;;;1.80;96.90;212.10;228463.00;;;;3;78027208;82526136;-61
2022/04/03 16:05:56;;;;;;;;;;;1.70;97.30;212.10;228463.00;;;;3;75026485;78027487;-59
2022/04/03 16:10:28;;;;;;;;;;;1.60;97.20;212.10;228463.00;;;;3;75024276;82527716;-59
2022/04/03 16:14:54;;;;;;;;;;;1.50;97.50;212.10;228463.00;;;;3;84026794;84028555;-60
2022/04/03 16:19:21;;;;;;;;;;;1.50;96.20;212.10;228463.00;;;;3;78027924;82526676;-60
2022/04/03 16:23:43;;;;;;;;;;;1.50;96.00;212.10;228463.00;;;;3;75025738;78027359;-62
2022/04/03 16:28:03;;;;;;;;;;;1.40;97.10;212.10;228463.00;;;;3;75024410;82526470;-61
2022/04/03 16:32:27;;;;;;;;;;;1.40;96.80;212.10;228463.00;;;;3;82528147;82528439;-57
2022/04/03 16:36:53;;;;;;;;;;;1.40;96.60;212.10;228463.00;;;;3;78026999;82528330;-58
2022/04/03 16:41:13;;;;;;;;;;;1.40;97.10;212.10;228463.00;;;;3;75025020;78027049;-58
2022/04/03 16:45:33;;;;;;;;;;;1.30;97.00;212.10;228463.00;;;;3;75024586;82527280;-60
2022/04/03 16:49:57;;;;;;;;;;;1.30;97.40;212.10;228463.00;;;;3;82528343;82528627;-58
2022/04/03 16:54:23;;;;;;;;;;;1.20;97.60;212.10;228463.00;;;;3;78027406;82528253;-58
2022/04/03 16:58:44;;;;;;;;;;;1.20;97.60;212.10;228463.00;;;;3;75024625;78027123;-58
2022/04/03 17:03:05;;;;;;;;;;;1.20;97.30;212.10;228463.00;;;;3;75023874;84028276;-58
2022/04/03 17:07:29;;;;;;;;;;;1.20;97.30;212.10;228463.00;;;;3;82527655;82529418;-57
2022/04/03 17:11:57;;;;;;;;;;;1.30;96.80;212.10;228463.00;;;;3;78028073;82528083;-57
2022/04/03 17:16:16;;;;;;;;;;;1.30;96.40;212.10;228463.00;;;;3;75024741;78026011;-57
2022/04/03 17:20:38;;;;;;;;;;;1.30;96.50;212.10;228463.00;;;;3;75025288;82525970;-57
2022/04/03 17:25:02;;;;;;;;;;;1.30;96.40;212.10;228463.00;;;;3;82526119;82527719;-58
2022/04/03 17:29:29;;;;;;;;;;;1.20;96.50;212.10;228463.00;;;;3;78025925;82529571;-59
2022/04/03 17:33:49;;;;;;;;;;;1.20;96.70;212.10;228463.00;;;;3;75026563;78027337;-58
2022/04/03 17:38:08;;;;;;;;;;;1.20;96.50;212.10;228463.00;;;;3;75024969;82528878;-56
2022/04/03 17:42:35;;;;;;;;;;;1.10;96.90;212.10;228463.00;;;;3;84025270;84031788;-56
2022/04/03 17:47:02;;;;;;;;;;;1.00;96.30;212.10;228463.00;;;;3;78026236;82529491;-59
2022/04/03 17:51:21;;;;;;;;;;;1.00;96.20;212.10;228463.00;;;;3;75024341;78028272;-59
2022/04/03 17:55:41;;;;;;;;;;;0.90;96.00;212.10;228463.00;;;;3;75023520;82527233;-60
2022/04/03 18:00:06;;;;;;;;;;;0.90;95.10;212.10;228463.00;;;;3;82526524;82528043;-61
2022/04/03 18:04:40;;;;;;;;;;;0.90;95.30;212.10;228463.00;;;;3;78027052;82527643;-60
2022/04/03 18:08:59;;;;;;;;;;;0.90;95.10;212.10;228463.00;;;;3;75024862;78027409;-61
2022/04/03 18:13:19;;;;;;;;;;;0.80;95.10;212.10;228463.00;;;;3;75025847;82528657;-61
2022/04/03 18:17:43;;;;;;;;;;;0.70;94.30;212.10;228463.00;;;;3;82527020;82528812;-61
2022/04/03 18:22:10;;;;;;;;;;;0.70;93.80;212.10;228463.00;;;;3;78026666;82528081;-61
2022/04/03 18:26:31;;;;;;;;;;;0.70;93.60;212.10;228463.00;;;;3;75024591;78025935;-61
2022/04/03 18:30:51;;;;;;;;;;;0.70;92.50;212.10;228463.00;;;;3;75024379;84027532;-61
2022/04/03 18:35:15;;;;;;;;;;;0.60;92.70;212.10;228463.00;;;;3;82527263;82528234;-63
2022/04/03 18:39:44;;;;;;;;;;;0.60;91.90;212.10;228463.00;;;;3;78025478;82529068;-61
2022/04/03 18:44:04;;;;;;;;;;;0.50;92.60;212.10;228463.00;;;;3;75023964;78027288;-60
2022/04/03 18:48:23;;;;;;;;;;;0.40;92.20;212.10;228463.00;;;;3;75026544;82527704;-61
2022/04/03 18:52:48;;;;;;;;;;;0.40;92.30;212.10;228463.00;;;;3;82525917;82528477;-61
2022/04/03 18:57:15;;;;;;;;;;;0.40;91.90;212.10;228463.00;;;;3;78026638;82528874;-62
2022/04/03 19:01:34;;;;;;;;;;;0.40;90.60;212.10;228463.00;;;;3;75025079;78026154;-62
2022/04/03 19:05:54;;;;;;;;;;;0.40;91.00;212.10;228463.00;;;;3;75026121;82526702;-65
2022/04/03 19:10:20;;;;;;;;;;;0.40;90.80;212.10;228463.00;;;;3;84028100;84028137;-57
2022/04/03 19:14:47;;;;;;;;;;;0.30;90.50;212.10;228463.00;;;;3;78025516;82526999;-57
2022/04/03 19:19:06;;;;;;;;;;;0.30;90.30;212.10;228463.00;;;;3;75025675;78026913;-56
2022/04/03 19:23:25;;;;;;;;;;;0.20;90.20;212.10;228463.00;;;;3;75026362;82527680;-59
2022/04/03 19:27:51;;;;;;;;;;;0.10;90.70;212.10;228463.00;;;;3;82525366;82529654;-58
2022/04/03 19:32:18;;;;;;;;;;;0.20;90.30;212.10;228463.00;;;;3;78026721;82528302;-59
2022/04/03 19:36:37;;;;;;;;;;;0.20;90.30;212.10;228463.00;;;;3;75024277;78026093;-59
2022/04/03 19:40:56;;;;;;;;;;;0.10;91.10;212.10;228463.00;;;;3;75024163;82527759;-58
2022/04/03 19:45:21;;;;;;;;;;;0.10;90.70;212.10;228463.00;;;;3;82526662;82528394;-62
2022/04/03 19:49:48;;;;;;;;;;;0.10;90.70;212.10;228463.00;;;;3;78026528;82528765;-62
2022/04/03 19:54:09;;;;;;;;;;;0.10;90.40;212.10;228463.00;;;;3;75024585;78026424;-61
2022/04/03 19:58:29;;;;;;;;;;;0.00;91.10;212.10;228463.00;;;;3;75025991;84026321;-61
2022/04/03 20:02:53;;;;;;;;;;;0.00;91.00;212.10;228463.00;;;;3;82526198;82529745;-61
2022/04/03 20:07:20;;;;;;;;;;;0.00;90.60;212.10;228463.00;;;;3;78026755;82526630;-61
2022/04/03 20:11:39;;;;;;;;;;;0.00;89.50;212.10;228463.00;;;;3;75025008;78027306;-62
2022/04/03 20:15:59;;;;;;;;;;;0.00;90.80;212.10;228463.00;;;;3;75023762;82526547;-60
2022/04/03 20:20:27;;;;;;;;;;;0.00;89.50;212.10;228463.00;;;;3;82526966;82527529;-61
2022/04/03 20:24:53;;;;;;;;;;;0.00;90.00;212.10;228463.00;;;;3;78025965;82529327;-61
2022/04/03 20:29:12;;;;;;;;;;;-0.10;89.20;212.10;228463.00;;;;3;75025380;78027013;-61
2022/04/03 20:33:32;;;;;;;;;;;-0.20;90.40;212.10;228463.00;;;;3;75025525;82527640;-61
2022/04/03 20:37:59;;;;;;;;;;;-0.20;89.60;212.10;228463.00;;;;3;84028831;84029322;-61